sensor_id;sensor_type;location;lat;lon;timestamp;temperature;humidity
70267;DHT22;57676;43.856;1.926;2022-09-02T00:00:12;21.20;97.90
70267;DHT22;57676;43.856;1.926;2022-09-02T00:02:38;21.10;97.90
70267;DHT22;57676;43.856;1.926;2022-09-02T00:05:04;21.10;97.90
70267;DHT22;57676;43.856;1.926;2022-09-02T00:07:31;21.10;98.10
70267;DHT22;57676;43.856;1.926;2022-09-02T00:09:57;21.10;99.00
70267;DHT22;57676;43.856;1.926;2022-09-02T00:12:24;20.90;99.80
70267;DHT22;57676;43.856;1.926;2022-09-02T00:14:50;20.90;99.60
70267;DHT22;57676;43.856;1.926;2022-09-02T00:17:16;20.90;99.20
70267;DHT22;57676;43.856;1.926;2022-09-02T00:19:42;21.00;99.00
70267;DHT22;57676;43.856;1.926;2022-09-02T00:22:08;21.10;98.40
70267;DHT22;57676;43.856;1.926;2022-09-02T00:24:34;21.10;98.20
70267;DHT22;57676;43.856;1.926;2022-09-02T00:27:00;21.10;97.90
70267;DHT22;57676;43.856;1.926;2022-09-02T00:29:26;21.00;98.30
70267;DHT22;57676;43.856;1.926;2022-09-02T00:31:53;20.90;98.60
70267;DHT22;57676;43.856;1.926;2022-09-02T00:34:19;20.90;98.90
70267;DHT22;57676;43.856;1.926;2022-09-02T00:36:45;20.90;98.90
70267;DHT22;57676;43.856;1.926;2022-09-02T00:39:11;20.90;98.80
70267;DHT22;57676;43.856;1.926;2022-09-02T00:41:39;20.90;99.30
70267;DHT22;57676;43.856;1.926;2022-09-02T00:44:09;20.80;99.40
70267;DHT22;57676;43.856;1.926;2022-09-02T00:46:36;20.80;99.50
70267;DHT22;57676;43.856;1.926;2022-09-02T00:49:26;20.60;99.70
70267;DHT22;57676;43.856;1.926;2022-09-02T00:54:47;20.50;99.90
70267;DHT22;57676;43.856;1.926;2022-09-02T00:57:17;20.40;99.90
70267;DHT22;57676;43.856;1.926;2022-09-02T00:59:52;20.20;99.90
70267;DHT22;57676;43.856;1.926;2022-09-02T01:02:19;20.20;99.90
70267;DHT22;57676;43.856;1.926;2022-09-02T01:04:48;20.20;99.90
70267;DHT22;57676;43.856;1.926;2022-09-02T01:07:14;20.20;99.90
70267;DHT22;57676;43.856;1.926;2022-09-02T01:09:41;20.20;99.90
70267;DHT22;57676;43.856;1.926;2022-09-02T01:12:07;20.20;99.90
70267;DHT22;57676;43.856;1.926;2022-09-02T01:14:34;20.10;99.90
70267;DHT22;57676;43.856;1.926;2022-09-02T01:17:01;20.20;99.90
70267;DHT22;57676;43.856;1.926;2022-09-02T01:19:33;20.10;99.90
70267;DHT22;57676;43.856;1.926;2022-09-02T01:22:00;20.00;99.90
70267;DHT22;57676;43.856;1.926;2022-09-02T01:24:29;20.00;99.90
70267;DHT22;57676;43.856;1.926;2022-09-02T01:26:57;19.80;99.90
70267;DHT22;57676;43.856;1.926;2022-09-02T01:29:25;19.70;99.90
70267;DHT22;57676;43.856;1.926;2022-09-02T01:31:51;19.70;99.90
70267;DHT22;57676;43.856;1.926;2022-09-02T01:34:18;19.70;99.90
70267;DHT22;57676;43.856;1.926;2022-09-02T01:36:44;19.50;99.90
70267;DHT22;57676;43.856;1.926;2022-09-02T01:39:11;19.40;99.90
70267;DHT22;57676;43.856;1.926;2022-09-02T01:41:37;19.40;99.90
70267;DHT22;57676;43.856;1.926;2022-09-02T01:44:05;19.40;99.90
70267;DHT22;57676;43.856;1.926;2022-09-02T01:46:32;19.50;99.90
70267;DHT22;57676;43.856;1.926;2022-09-02T01:48:58;19.50;99.90
70267;DHT22;57676;43.856;1.926;2022-09-02T01:51:24;19.60;99.90
70267;DHT22;57676;43.856;1.926;2022-09-02T01:53:50;19.70;99.90
70267;DHT22;57676;43.856;1.926;2022-09-02T01:56:16;19.70;99.90
70267;DHT22;57676;43.856;1.926;2022-09-02T01:58:42;19.70;99.90
70267;DHT22;57676;43.856;1.926;2022-09-02T02:01:08;19.70;99.90
70267;DHT22;57676;43.856;1.926;2022-09-02T02:03:35;19.60;99.90
70267;DHT22;57676;43.856;1.926;2022-09-02T02:06:06;19.60;99.90
70267;DHT22;57676;43.856;1.926;2022-09-02T02:08:32;19.60;99.90
70267;DHT22;57676;43.856;1.926;2022-09-02T02:10:58;19.50;99.90
70267;DHT22;57676;43.856;1.926;2022-09-02T02:13:25;19.40;99.90
70267;DHT22;57676;43.856;1.926;2022-09-02T02:15:51;19.30;99.90
70267;DHT22;57676;43.856;1.926;2022-09-02T02:18:17;19.20;99.90
70267;DHT22;57676;43.856;1.926;2022-09-02T02:20:43;19.20;99.90
70267;DHT22;57676;43.856;1.926;2022-09-02T02:23:09;19.10;99.90
70267;DHT22;57676;43.856;1.926;2022-09-02T02:25:35;19.10;99.90
70267;DHT22;57676;43.856;1.926;2022-09-02T02:28:01;19.10;99.90
70267;DHT22;57676;43.856;1.926;2022-09-02T02:30:26;19.20;99.90
70267;DHT22;57676;43.856;1.926;2022-09-02T02:32:52;19.10;99.90
70267;DHT22;57676;43.856;1.926;2022-09-02T02:35:18;19.20;99.90
70267;DHT22;57676;43.856;1.926;2022-09-02T02:37:45;19.10;99.90
70267;DHT22;57676;43.856;1.926;2022-09-02T02:40:14;19.10;99.90
70267;DHT22;57676;43.856;1.926;2022-09-02T02:42:40;19.10;99.90
70267;DHT22;57676;43.856;1.926;2022-09-02T02:45:07;19.10;99.90
70267;DHT22;57676;43.856;1.926;2022-09-02T02:47:36;19.00;99.90
70267;DHT22;57676;43.856;1.926;2022-09-02T02:50:03;18.90;99.90
70267;DHT22;57676;43.856;1.926;2022-09-02T02:52:29;18.90;99.90
70267;DHT22;57676;43.856;1.926;2022-09-02T02:54:55;18.90;99.90
70267;DHT22;57676;43.856;1.926;2022-09-02T02:57:21;18.80;99.90
70267;DHT22;57676;43.856;1.926;2022-09-02T02:59:47;18.70;99.90
70267;DHT22;57676;43.856;1.926;2022-09-02T03:02:12;18.70;99.90
70267;DHT22;57676;43.856;1.926;2022-09-02T03:04:38;18.70;99.90
70267;DHT22;57676;43.856;1.926;2022-09-02T03:07:04;18.80;99.90
70267;DHT22;57676;43.856;1.926;2022-09-02T03:09:31;18.70;99.90
70267;DHT22;57676;43.856;1.926;2022-09-02T03:11:57;18.70;99.90
70267;DHT22;57676;43.856;1.926;2022-09-02T03:14:23;18.80;99.90
70267;DHT22;57676;43.856;1.926;2022-09-02T03:16:49;18.80;99.90
70267;DHT22;57676;43.856;1.926;2022-09-02T03:19:15;18.80;99.90
70267;DHT22;57676;43.856;1.926;2022-09-02T03:21:41;18.80;99.90
70267;DHT22;57676;43.856;1.926;2022-09-02T03:24:08;18.70;99.90
70267;DHT22;57676;43.856;1.926;2022-09-02T03:26:35;18.60;99.90
70267;DHT22;57676;43.856;1.926;2022-09-02T03:29:00;18.60;99.90
70267;DHT22;57676;43.856;1.926;2022-09-02T03:31:27;18.60;99.90
70267;DHT22;57676;43.856;1.926;2022-09-02T03:33:53;18.50;99.90
70267;DHT22;57676;43.856;1.926;2022-09-02T03:36:24;18.50;99.90
70267;DHT22;57676;43.856;1.926;2022-09-02T03:38:50;18.40;99.90
70267;DHT22;57676;43.856;1.926;2022-09-02T03:41:15;18.40;99.90
70267;DHT22;57676;43.856;1.926;2022-09-02T03:43:41;18.40;99.90
70267;DHT22;57676;43.856;1.926;2022-09-02T03:46:07;18.40;99.90
70267;DHT22;57676;43.856;1.926;2022-09-02T03:48:34;18.30;99.90
70267;DHT22;57676;43.856;1.926;2022-09-02T03:51:01;18.20;99.90
70267;DHT22;57676;43.856;1.926;2022-09-02T03:53:27;18.20;99.90
70267;DHT22;57676;43.856;1.926;2022-09-02T03:55:53;18.30;99.90
70267;DHT22;57676;43.856;1.926;2022-09-02T03:58:20;18.30;99.90
70267;DHT22;57676;43.856;1.926;2022-09-02T04:00:51;18.40;99.90
70267;DHT22;57676;43.856;1.926;2022-09-02T04:03:18;18.40;99.90
70267;DHT22;57676;43.856;1.926;2022-09-02T04:05:47;18.30;99.90
70267;DHT22;57676;43.856;1.926;2022-09-02T04:08:15;18.20;99.90
70267;DHT22;57676;43.856;1.926;2022-09-02T04:10:41;18.30;99.90
70267;DHT22;57676;43.856;1.926;2022-09-02T04:13:07;18.30;99.90
70267;DHT22;57676;43.856;1.926;2022-09-02T04:15:33;18.20;99.90
70267;DHT22;57676;43.856;1.926;2022-09-02T04:17:59;18.20;99.90
70267;DHT22;57676;43.856;1.926;2022-09-02T04:20:24;18.20;99.90
70267;DHT22;57676;43.856;1.926;2022-09-02T04:22:50;18.30;99.90
70267;DHT22;57676;43.856;1.926;2022-09-02T04:25:16;18.30;99.90
70267;DHT22;57676;43.856;1.926;2022-09-02T04:27:42;18.30;99.90
70267;DHT22;57676;43.856;1.926;2022-09-02T04:30:08;18.30;99.90
70267;DHT22;57676;43.856;1.926;2022-09-02T04:32:35;18.20;99.90
70267;DHT22;57676;43.856;1.926;2022-09-02T04:35:01;18.10;99.90
70267;DHT22;57676;43.856;1.926;2022-09-02T04:37:27;18.20;99.90
70267;DHT22;57676;43.856;1.926;2022-09-02T04:39:53;18.20;99.90
70267;DHT22;57676;43.856;1.926;2022-09-02T04:42:19;18.20;99.90
70267;DHT22;57676;43.856;1.926;2022-09-02T04:44:45;18.20;99.90
70267;DHT22;57676;43.856;1.926;2022-09-02T04:47:11;18.10;99.90
70267;DHT22;57676;43.856;1.926;2022-09-02T04:49:37;18.20;99.90
70267;DHT22;57676;43.856;1.926;2022-09-02T04:52:03;18.20;99.90
70267;DHT22;57676;43.856;1.926;2022-09-02T04:54:29;18.20;99.90
70267;DHT22;57676;43.856;1.926;2022-09-02T04:56:55;18.20;99.90
70267;DHT22;57676;43.856;1.926;2022-09-02T04:59:21;18.20;99.90
70267;DHT22;57676;43.856;1.926;2022-09-02T05:01:47;18.30;99.90
70267;DHT22;57676;43.856;1.926;2022-09-02T05:04:14;18.30;99.90
70267;DHT22;57676;43.856;1.926;2022-09-02T05:06:40;18.30;99.90
70267;DHT22;57676;43.856;1.926;2022-09-02T05:09:06;18.40;99.90
70267;DHT22;57676;43.856;1.926;2022-09-02T05:11:34;18.50;99.90
70267;DHT22;57676;43.856;1.926;2022-09-02T05:14:02;18.50;99.90
70267;DHT22;57676;43.856;1.926;2022-09-02T05:16:31;18.50;99.90
70267;DHT22;57676;43.856;1.926;2022-09-02T05:18:59;18.60;99.90
70267;DHT22;57676;43.856;1.926;2022-09-02T05:21:25;18.50;99.90
70267;DHT22;57676;43.856;1.926;2022-09-02T05:23:51;18.50;99.90
70267;DHT22;57676;43.856;1.926;2022-09-02T05:26:17;18.50;99.90
70267;DHT22;57676;43.856;1.926;2022-09-02T05:28:43;18.60;99.90
70267;DHT22;57676;43.856;1.926;2022-09-02T05:31:12;18.60;99.90
70267;DHT22;57676;43.856;1.926;2022-09-02T05:33:39;18.70;99.90
70267;DHT22;57676;43.856;1.926;2022-09-02T05:36:08;18.90;99.90
70267;DHT22;57676;43.856;1.926;2022-09-02T05:38:39;19.10;99.90
70267;DHT22;57676;43.856;1.926;2022-09-02T05:41:06;19.20;99.90
70267;DHT22;57676;43.856;1.926;2022-09-02T05:43:37;19.00;99.90
70267;DHT22;57676;43.856;1.926;2022-09-02T05:46:07;18.80;99.90
70267;DHT22;57676;43.856;1.926;2022-09-02T05:48:35;18.60;99.90
70267;DHT22;57676;43.856;1.926;2022-09-02T05:51:21;18.70;99.90
70267;DHT22;57676;43.856;1.926;2022-09-02T05:53:50;18.70;99.90
70267;DHT22;57676;43.856;1.926;2022-09-02T05:56:16;18.80;99.90
70267;DHT22;57676;43.856;1.926;2022-09-02T05:58:42;18.70;99.90
70267;DHT22;57676;43.856;1.926;2022-09-02T06:01:10;18.70;99.90
70267;DHT22;57676;43.856;1.926;2022-09-02T06:03:37;18.80;99.90
70267;DHT22;57676;43.856;1.926;2022-09-02T06:06:03;18.80;99.90
70267;DHT22;57676;43.856;1.926;2022-09-02T06:08:31;18.90;99.90
70267;DHT22;57676;43.856;1.926;2022-09-02T06:10:57;19.00;99.90
70267;DHT22;57676;43.856;1.926;2022-09-02T06:13:27;19.20;99.90
70267;DHT22;57676;43.856;1.926;2022-09-02T06:15:53;19.30;99.90
70267;DHT22;57676;43.856;1.926;2022-09-02T06:18:19;19.40;99.90
70267;DHT22;57676;43.856;1.926;2022-09-02T06:20:46;19.50;99.90
70267;DHT22;57676;43.856;1.926;2022-09-02T06:23:12;19.70;99.90
70267;DHT22;57676;43.856;1.926;2022-09-02T06:25:40;20.20;99.90
70267;DHT22;57676;43.856;1.926;2022-09-02T06:28:06;20.50;99.90
70267;DHT22;57676;43.856;1.926;2022-09-02T06:30:33;20.80;99.90
70267;DHT22;57676;43.856;1.926;2022-09-02T06:32:59;20.50;99.90
70267;DHT22;57676;43.856;1.926;2022-09-02T06:35:26;20.40;99.90
70267;DHT22;57676;43.856;1.926;2022-09-02T06:37:52;20.60;99.90
70267;DHT22;57676;43.856;1.926;2022-09-02T06:40:18;21.00;99.90
70267;DHT22;57676;43.856;1.926;2022-09-02T06:42:43;21.40;99.90
70267;DHT22;57676;43.856;1.926;2022-09-02T06:45:09;21.60;99.90
70267;DHT22;57676;43.856;1.926;2022-09-02T06:47:35;21.90;99.90
70267;DHT22;57676;43.856;1.926;2022-09-02T06:50:02;21.70;99.90
70267;DHT22;57676;43.856;1.926;2022-09-02T06:52:28;22.10;99.90
70267;DHT22;57676;43.856;1.926;2022-09-02T06:54:53;21.80;99.90
70267;DHT22;57676;43.856;1.926;2022-09-02T06:57:20;21.30;99.90
70267;DHT22;57676;43.856;1.926;2022-09-02T06:59:46;21.10;99.90
70267;DHT22;57676;43.856;1.926;2022-09-02T07:02:13;21.00;99.90
70267;DHT22;57676;43.856;1.926;2022-09-02T07:04:40;21.00;99.90
70267;DHT22;57676;43.856;1.926;2022-09-02T07:07:28;21.00;99.90
70267;DHT22;57676;43.856;1.926;2022-09-02T07:09:53;21.20;99.90
70267;DHT22;57676;43.856;1.926;2022-09-02T07:12:20;21.40;99.90
70267;DHT22;57676;43.856;1.926;2022-09-02T07:14:46;21.40;99.90
70267;DHT22;57676;43.856;1.926;2022-09-02T07:17:13;21.40;99.90
70267;DHT22;57676;43.856;1.926;2022-09-02T07:19:43;21.40;99.90
70267;DHT22;57676;43.856;1.926;2022-09-02T07:22:09;21.40;99.90
70267;DHT22;57676;43.856;1.926;2022-09-02T07:24:35;21.40;99.90
70267;DHT22;57676;43.856;1.926;2022-09-02T07:27:02;21.40;99.90
70267;DHT22;57676;43.856;1.926;2022-09-02T07:29:28;21.40;99.90
70267;DHT22;57676;43.856;1.926;2022-09-02T07:31:54;21.40;99.90
70267;DHT22;57676;43.856;1.926;2022-09-02T07:34:20;21.50;99.90
70267;DHT22;57676;43.856;1.926;2022-09-02T07:36:47;21.40;99.90
70267;DHT22;57676;43.856;1.926;2022-09-02T07:39:14;21.40;99.90
70267;DHT22;57676;43.856;1.926;2022-09-02T07:41:42;21.30;99.90
70267;DHT22;57676;43.856;1.926;2022-09-02T07:44:09;21.40;99.90
70267;DHT22;57676;43.856;1.926;2022-09-02T07:46:35;21.50;99.90
70267;DHT22;57676;43.856;1.926;2022-09-02T07:49:05;21.70;99.90
70267;DHT22;57676;43.856;1.926;2022-09-02T07:51:32;21.80;99.90
70267;DHT22;57676;43.856;1.926;2022-09-02T07:53:59;22.00;99.90
70267;DHT22;57676;43.856;1.926;2022-09-02T07:56:25;25.50;96.80
70267;DHT22;57676;43.856;1.926;2022-09-02T07:58:51;28.60;89.60
70267;DHT22;57676;43.856;1.926;2022-09-02T08:01:17;30.20;80.90
70267;DHT22;57676;43.856;1.926;2022-09-02T08:03:44;31.40;74.50
70267;DHT22;57676;43.856;1.926;2022-09-02T08:06:11;30.50;74.20
70267;DHT22;57676;43.856;1.926;2022-09-02T08:08:38;28.60;76.80
70267;DHT22;57676;43.856;1.926;2022-09-02T08:11:04;29.20;76.80
70267;DHT22;57676;43.856;1.926;2022-09-02T08:13:31;31.60;72.50
70267;DHT22;57676;43.856;1.926;2022-09-02T08:15:57;32.20;69.70
70267;DHT22;57676;43.856;1.926;2022-09-02T08:18:23;33.60;65.80
70267;DHT22;57676;43.856;1.926;2022-09-02T08:20:49;30.50;67.40
70267;DHT22;57676;43.856;1.926;2022-09-02T08:23:16;31.80;68.50
70267;DHT22;57676;43.856;1.926;2022-09-02T08:25:42;33.10;64.50
70267;DHT22;57676;43.856;1.926;2022-09-02T08:28:08;34.00;62.80
70267;DHT22;57676;43.856;1.926;2022-09-02T08:30:34;34.90;61.00
70267;DHT22;57676;43.856;1.926;2022-09-02T08:33:00;35.20;60.20
70267;DHT22;57676;43.856;1.926;2022-09-02T08:35:26;35.50;59.10
70267;DHT22;57676;43.856;1.926;2022-09-02T08:37:52;35.70;57.90
70267;DHT22;57676;43.856;1.926;2022-09-02T08:40:21;35.70;57.80
70267;DHT22;57676;43.856;1.926;2022-09-02T08:42:53;35.50;57.70
70267;DHT22;57676;43.856;1.926;2022-09-02T08:45:26;36.20;57.20
70267;DHT22;57676;43.856;1.926;2022-09-02T08:48:10;36.00;56.30
70267;DHT22;57676;43.856;1.926;2022-09-02T08:50:44;36.90;56.00
70267;DHT22;57676;43.856;1.926;2022-09-02T08:53:39;36.50;56.60
70267;DHT22;57676;43.856;1.926;2022-09-02T08:56:14;36.30;56.00
70267;DHT22;57676;43.856;1.926;2022-09-02T08:58:43;34.50;57.70
70267;DHT22;57676;43.856;1.926;2022-09-02T09:01:41;33.40;59.70
70267;DHT22;57676;43.856;1.926;2022-09-02T09:07:45;29.90;65.50
70267;DHT22;57676;43.856;1.926;2022-09-02T09:10:33;29.10;67.10
70267;DHT22;57676;43.856;1.926;2022-09-02T09:13:22;27.90;68.30
70267;DHT22;57676;43.856;1.926;2022-09-02T09:18:55;28.20;69.70
70267;DHT22;57676;43.856;1.926;2022-09-02T09:21:24;28.20;70.30
70267;DHT22;57676;43.856;1.926;2022-09-02T09:23:51;28.10;70.20
70267;DHT22;57676;43.856;1.926;2022-09-02T09:26:23;27.80;71.60
70267;DHT22;57676;43.856;1.926;2022-09-02T09:28:52;27.40;72.40
70267;DHT22;57676;43.856;1.926;2022-09-02T09:31:21;27.30;73.00
70267;DHT22;57676;43.856;1.926;2022-09-02T09:34:08;27.20;73.10
70267;DHT22;57676;43.856;1.926;2022-09-02T09:36:55;27.60;73.30
70267;DHT22;57676;43.856;1.926;2022-09-02T09:39:24;27.70;72.70
70267;DHT22;57676;43.856;1.926;2022-09-02T09:41:56;28.00;72.50
70267;DHT22;57676;43.856;1.926;2022-09-02T09:44:43;27.50;73.00
70267;DHT22;57676;43.856;1.926;2022-09-02T09:47:14;27.70;73.10
70267;DHT22;57676;43.856;1.926;2022-09-02T09:49:45;27.70;73.10
70267;DHT22;57676;43.856;1.926;2022-09-02T09:52:21;27.70;73.20
70267;DHT22;57676;43.856;1.926;2022-09-02T09:55:18;27.70;72.70
70267;DHT22;57676;43.856;1.926;2022-09-02T09:57:47;27.70;72.90
70267;DHT22;57676;43.856;1.926;2022-09-02T10:00:33;27.70;73.00
70267;DHT22;57676;43.856;1.926;2022-09-02T10:03:01;27.70;72.90
70267;DHT22;57676;43.856;1.926;2022-09-02T10:05:32;28.10;72.50
70267;DHT22;57676;43.856;1.926;2022-09-02T10:08:02;27.90;72.50
70267;DHT22;57676;43.856;1.926;2022-09-02T10:10:31;27.90;72.40
70267;DHT22;57676;43.856;1.926;2022-09-02T10:13:01;28.20;72.30
70267;DHT22;57676;43.856;1.926;2022-09-02T10:15:45;28.30;71.70
70267;DHT22;57676;43.856;1.926;2022-09-02T10:21:43;28.40;71.70
70267;DHT22;57676;43.856;1.926;2022-09-02T10:27:15;28.80;71.30
70267;DHT22;57676;43.856;1.926;2022-09-02T10:29:56;29.10;71.20
70267;DHT22;57676;43.856;1.926;2022-09-02T10:35:28;29.30;69.60
70267;DHT22;57676;43.856;1.926;2022-09-02T10:41:11;29.00;70.50
70267;DHT22;57676;43.856;1.926;2022-09-02T10:46:50;29.50;69.50
70267;DHT22;57676;43.856;1.926;2022-09-02T10:49:44;29.00;70.00
70267;DHT22;57676;43.856;1.926;2022-09-02T10:52:35;29.70;69.60
70267;DHT22;57676;43.856;1.926;2022-09-02T10:55:28;29.50;69.40
70267;DHT22;57676;43.856;1.926;2022-09-02T10:58:07;28.90;69.90
70267;DHT22;57676;43.856;1.926;2022-09-02T11:00:34;29.20;70.30
70267;DHT22;57676;43.856;1.926;2022-09-02T11:03:28;29.60;69.30
70267;DHT22;57676;43.856;1.926;2022-09-02T11:06:03;29.90;68.90
70267;DHT22;57676;43.856;1.926;2022-09-02T11:08:52;29.90;68.60
70267;DHT22;57676;43.856;1.926;2022-09-02T11:11:24;29.50;69.10
70267;DHT22;57676;43.856;1.926;2022-09-02T11:14:01;29.30;69.70
70267;DHT22;57676;43.856;1.926;2022-09-02T11:16:32;28.90;70.10
70267;DHT22;57676;43.856;1.926;2022-09-02T11:19:08;28.60;70.60
70267;DHT22;57676;43.856;1.926;2022-09-02T11:22:02;28.50;71.10
70267;DHT22;57676;43.856;1.926;2022-09-02T11:24:47;28.40;71.10
70267;DHT22;57676;43.856;1.926;2022-09-02T11:30:13;29.20;69.80
70267;DHT22;57676;43.856;1.926;2022-09-02T11:35:35;29.30;69.10
70267;DHT22;57676;43.856;1.926;2022-09-02T11:41:25;29.80;68.20
70267;DHT22;57676;43.856;1.926;2022-09-02T11:43:58;30.00;68.10
70267;DHT22;57676;43.856;1.926;2022-09-02T11:46:55;29.80;68.40
70267;DHT22;57676;43.856;1.926;2022-09-02T11:49:54;30.00;67.80
70267;DHT22;57676;43.856;1.926;2022-09-02T11:55:39;29.40;68.30
70267;DHT22;57676;43.856;1.926;2022-09-02T11:58:07;29.60;68.10
70267;DHT22;57676;43.856;1.926;2022-09-02T12:00:34;29.90;67.20
70267;DHT22;57676;43.856;1.926;2022-09-02T12:03:13;30.40;66.80
70267;DHT22;57676;43.856;1.926;2022-09-02T12:05:44;30.00;67.80
70267;DHT22;57676;43.856;1.926;2022-09-02T12:08:13;30.10;68.00
70267;DHT22;57676;43.856;1.926;2022-09-02T12:11:02;30.10;68.00
70267;DHT22;57676;43.856;1.926;2022-09-02T12:13:51;30.30;67.30
70267;DHT22;57676;43.856;1.926;2022-09-02T12:16:35;30.40;66.90
70267;DHT22;57676;43.856;1.926;2022-09-02T12:19:24;30.60;66.30
70267;DHT22;57676;43.856;1.926;2022-09-02T12:24:54;30.00;66.60
70267;DHT22;57676;43.856;1.926;2022-09-02T12:27:29;29.60;67.80
70267;DHT22;57676;43.856;1.926;2022-09-02T12:30:05;29.70;68.00
70267;DHT22;57676;43.856;1.926;2022-09-02T12:35:50;30.00;67.50
70267;DHT22;57676;43.856;1.926;2022-09-02T12:38:22;29.90;67.60
70267;DHT22;57676;43.856;1.926;2022-09-02T12:40:52;30.10;67.60
70267;DHT22;57676;43.856;1.926;2022-09-02T12:43:26;30.20;66.70
70267;DHT22;57676;43.856;1.926;2022-09-02T12:46:03;30.00;66.70
70267;DHT22;57676;43.856;1.926;2022-09-02T12:48:40;30.00;67.10
70267;DHT22;57676;43.856;1.926;2022-09-02T12:51:07;30.30;66.80
70267;DHT22;57676;43.856;1.926;2022-09-02T12:53:38;30.20;66.00
70267;DHT22;57676;43.856;1.926;2022-09-02T12:56:18;30.40;65.90
70267;DHT22;57676;43.856;1.926;2022-09-02T12:58:50;30.60;65.80
70267;DHT22;57676;43.856;1.926;2022-09-02T13:07:52;31.30;65.10
70267;DHT22;57676;43.856;1.926;2022-09-02T13:19:59;31.60;63.60
70267;DHT22;57676;43.856;1.926;2022-09-02T13:26:04;31.20;64.50
70267;DHT22;57676;43.856;1.926;2022-09-02T13:31:37;32.20;62.90
70267;DHT22;57676;43.856;1.926;2022-09-02T13:34:05;31.70;62.90
70267;DHT22;57676;43.856;1.926;2022-09-02T13:36:41;31.10;62.90
70267;DHT22;57676;43.856;1.926;2022-09-02T13:39:12;31.00;63.70
70267;DHT22;57676;43.856;1.926;2022-09-02T13:41:38;30.60;63.30
70267;DHT22;57676;43.856;1.926;2022-09-02T13:44:07;30.70;64.30
70267;DHT22;57676;43.856;1.926;2022-09-02T13:46:43;30.50;64.50
70267;DHT22;57676;43.856;1.926;2022-09-02T13:49:34;30.60;64.70
70267;DHT22;57676;43.856;1.926;2022-09-02T13:52:00;30.80;64.10
70267;DHT22;57676;43.856;1.926;2022-09-02T13:54:36;31.10;63.90
70267;DHT22;57676;43.856;1.926;2022-09-02T13:57:05;31.10;64.70
70267;DHT22;57676;43.856;1.926;2022-09-02T13:59:35;30.50;63.90
70267;DHT22;57676;43.856;1.926;2022-09-02T14:02:28;30.40;64.90
70267;DHT22;57676;43.856;1.926;2022-09-02T14:04:58;30.60;64.40
70267;DHT22;57676;43.856;1.926;2022-09-02T14:07:30;30.40;64.70
70267;DHT22;57676;43.856;1.926;2022-09-02T14:09:59;30.10;65.10
70267;DHT22;57676;43.856;1.926;2022-09-02T14:12:27;30.00;65.10
70267;DHT22;57676;43.856;1.926;2022-09-02T14:14:54;29.80;65.10
70267;DHT22;57676;43.856;1.926;2022-09-02T14:17:24;29.60;65.60
70267;DHT22;57676;43.856;1.926;2022-09-02T14:19:54;29.80;65.70
70267;DHT22;57676;43.856;1.926;2022-09-02T14:22:33;30.30;65.20
70267;DHT22;57676;43.856;1.926;2022-09-02T14:25:07;30.60;64.50
70267;DHT22;57676;43.856;1.926;2022-09-02T14:27:33;30.60;64.40
70267;DHT22;57676;43.856;1.926;2022-09-02T14:29:59;30.60;64.40
70267;DHT22;57676;43.856;1.926;2022-09-02T14:32:26;30.50;63.60
70267;DHT22;57676;43.856;1.926;2022-09-02T14:37:58;30.00;64.00
70267;DHT22;57676;43.856;1.926;2022-09-02T14:40:44;30.00;64.60
70267;DHT22;57676;43.856;1.926;2022-09-02T14:43:13;30.40;64.50
70267;DHT22;57676;43.856;1.926;2022-09-02T14:45:45;30.70;63.50
70267;DHT22;57676;43.856;1.926;2022-09-02T14:48:34;30.60;63.80
70267;DHT22;57676;43.856;1.926;2022-09-02T14:51:03;30.90;63.40
70267;DHT22;57676;43.856;1.926;2022-09-02T14:53:30;30.90;62.60
70267;DHT22;57676;43.856;1.926;2022-09-02T14:55:57;30.80;63.20
70267;DHT22;57676;43.856;1.926;2022-09-02T14:58:25;30.80;63.10
70267;DHT22;57676;43.856;1.926;2022-09-02T15:00:52;30.90;62.90
70267;DHT22;57676;43.856;1.926;2022-09-02T15:03:21;30.70;63.10
70267;DHT22;57676;43.856;1.926;2022-09-02T15:05:47;30.30;63.20
70267;DHT22;57676;43.856;1.926;2022-09-02T15:08:14;30.10;64.10
70267;DHT22;57676;43.856;1.926;2022-09-02T15:10:41;29.90;63.90
70267;DHT22;57676;43.856;1.926;2022-09-02T15:13:11;30.00;64.30
70267;DHT22;57676;43.856;1.926;2022-09-02T15:15:38;30.40;64.40
70267;DHT22;57676;43.856;1.926;2022-09-02T15:18:05;30.20;63.50
70267;DHT22;57676;43.856;1.926;2022-09-02T15:20:31;29.80;63.90
70267;DHT22;57676;43.856;1.926;2022-09-02T15:22:57;29.50;64.50
70267;DHT22;57676;43.856;1.926;2022-09-02T15:25:24;29.30;65.10
70267;DHT22;57676;43.856;1.926;2022-09-02T15:27:50;29.30;65.30
70267;DHT22;57676;43.856;1.926;2022-09-02T15:30:16;29.40;65.50
70267;DHT22;57676;43.856;1.926;2022-09-02T15:32:42;29.40;65.30
70267;DHT22;57676;43.856;1.926;2022-09-02T15:35:09;29.60;65.60
70267;DHT22;57676;43.856;1.926;2022-09-02T15:37:36;29.90;65.10
70267;DHT22;57676;43.856;1.926;2022-09-02T15:40:04;30.10;64.50
70267;DHT22;57676;43.856;1.926;2022-09-02T15:42:35;30.20;64.80
70267;DHT22;57676;43.856;1.926;2022-09-02T15:45:02;30.30;64.50
70267;DHT22;57676;43.856;1.926;2022-09-02T15:47:28;30.00;64.80
70267;DHT22;57676;43.856;1.926;2022-09-02T15:49:55;29.70;64.90
70267;DHT22;57676;43.856;1.926;2022-09-02T15:52:23;29.50;65.50
70267;DHT22;57676;43.856;1.926;2022-09-02T15:54:48;29.30;65.80
70267;DHT22;57676;43.856;1.926;2022-09-02T15:57:15;29.40;65.60
70267;DHT22;57676;43.856;1.926;2022-09-02T15:59:41;29.60;65.20
70267;DHT22;57676;43.856;1.926;2022-09-02T16:02:07;29.80;65.20
70267;DHT22;57676;43.856;1.926;2022-09-02T16:04:34;30.00;64.80
70267;DHT22;57676;43.856;1.926;2022-09-02T16:07:00;30.00;64.80
70267;DHT22;57676;43.856;1.926;2022-09-02T16:09:28;29.90;64.80
70267;DHT22;57676;43.856;1.926;2022-09-02T16:12:03;29.80;64.70
70267;DHT22;57676;43.856;1.926;2022-09-02T16:15:03;29.70;64.70
70267;DHT22;57676;43.856;1.926;2022-09-02T16:18:13;29.70;64.90
70267;DHT22;57676;43.856;1.926;2022-09-02T16:21:04;29.60;64.60
70267;DHT22;57676;43.856;1.926;2022-09-02T16:23:41;29.30;64.80
70267;DHT22;57676;43.856;1.926;2022-09-02T16:26:09;29.10;65.00
70267;DHT22;57676;43.856;1.926;2022-09-02T16:28:38;29.00;65.00
70267;DHT22;57676;43.856;1.926;2022-09-02T16:31:06;29.00;65.20
70267;DHT22;57676;43.856;1.926;2022-09-02T16:33:32;28.90;65.30
70267;DHT22;57676;43.856;1.926;2022-09-02T16:35:58;29.00;65.40
70267;DHT22;57676;43.856;1.926;2022-09-02T16:38:24;28.90;65.40
70267;DHT22;57676;43.856;1.926;2022-09-02T16:40:52;28.80;65.50
70267;DHT22;57676;43.856;1.926;2022-09-02T16:43:19;28.60;66.30
70267;DHT22;57676;43.856;1.926;2022-09-02T16:45:48;28.50;66.70
70267;DHT22;57676;43.856;1.926;2022-09-02T16:48:19;28.50;66.70
70267;DHT22;57676;43.856;1.926;2022-09-02T16:50:46;28.50;66.40
70267;DHT22;57676;43.856;1.926;2022-09-02T16:53:13;28.50;66.20
70267;DHT22;57676;43.856;1.926;2022-09-02T16:55:40;28.60;66.40